Time;durP1;ratioP1;P1;durP2;ratioP2;P2;SDS_P1;SDS_P2;PMS_P1;PMS_P2;Temp;Humidity;BMP_temperature;BMP_pressure;BME280_temperature;BME280_humidity;BME280_pressure;Samples;Min_cycle;Max_cycle;Signal;HPM_P1;HPM_P2
2022/04/26 03:37:17;;;;;;;17.73;8.88;;;7.30;99.90;;;;;;5078392;28;20589;-64
2022/04/26 03:39:44;;;;;;;14.80;8.10;;;7.30;99.90;;;;;;5077743;28;20044;-65
2022/04/26 03:42:10;;;;;;;18.95;9.82;;;7.30;99.90;;;;;;5078501;28;20055;-64
2022/04/26 03:44:36;;;;;;;13.60;8.70;;;7.30;99.90;;;;;;5078775;28;20044;-64
2022/04/26 03:47:02;;;;;;;12.20;8.77;;;7.30;99.90;;;;;;5077177;28;20052;-64
2022/04/26 03:49:27;;;;;;;23.60;9.77;;;7.30;99.90;;;;;;5078397;28;20052;-65
2022/04/26 03:51:53;;;;;;;11.43;8.25;;;7.30;99.90;;;;;;5077164;28;20047;-64
2022/04/26 03:54:19;;;;;;;13.75;8.52;;;7.40;99.90;;;;;;5077564;28;20105;-65
2022/04/26 03:56:45;;;;;;;14.55;8.55;;;7.40;99.90;;;;;;5077855;28;20050;-65
2022/04/26 03:59:11;;;;;;;15.38;9.13;;;7.40;99.90;;;;;;5076640;28;20047;-64
2022/04/26 04:01:36;;;;;;;19.20;8.35;;;7.40;99.90;;;;;;5077557;28;20044;-65
2022/04/26 04:04:02;;;;;;;15.93;9.68;;;7.40;99.90;;;;;;5077512;28;20063;-65
2022/04/26 04:06:28;;;;;;;14.43;8.02;;;7.40;99.90;;;;;;5077447;28;20755;-65
2022/04/26 04:08:53;;;;;;;14.32;9.20;;;7.40;99.90;;;;;;5077241;28;20475;-64
2022/04/26 04:11:19;;;;;;;9.15;8.15;;;7.40;99.90;;;;;;5077697;28;20896;-64
2022/04/26 04:13:44;;;;;;;13.30;7.68;;;7.40;99.90;;;;;;5075923;28;20048;-65
2022/04/26 04:16:10;;;;;;;13.90;7.53;;;7.40;99.90;;;;;;5075627;28;20420;-65
2022/04/26 04:21:19;;;;;;;16.45;7.70;;;7.40;99.90;;;;;;5077410;28;20048;-65
2022/04/26 04:23:45;;;;;;;11.60;7.65;;;7.50;99.90;;;;;;5077447;28;20052;-65
2022/04/26 04:26:10;;;;;;;13.93;8.10;;;7.50;99.90;;;;;;5075529;28;20055;-65
2022/04/26 04:28:36;;;;;;;15.32;8.93;;;7.50;99.90;;;;;;5076629;28;20052;-65
2022/04/26 04:31:02;;;;;;;12.70;7.60;;;7.50;99.90;;;;;;5077129;28;20040;-65
2022/04/26 04:33:28;;;;;;;14.45;7.97;;;7.50;99.90;;;;;;5077004;28;20130;-65
2022/04/26 04:35:54;;;;;;;12.13;6.13;;;7.60;99.90;;;;;;5076767;28;20087;-65
2022/04/26 04:38:19;;;;;;;16.02;6.10;;;7.60;99.90;;;;;;5077575;28;20790;-65
2022/04/26 04:40:45;;;;;;;10.60;6.72;;;7.60;99.90;;;;;;5077068;28;20151;-65
2022/04/26 04:43:11;;;;;;;12.35;5.63;;;7.60;99.90;;;;;;5075968;28;20097;-65
2022/04/26 04:45:38;;;;;;;8.35;5.43;;;7.70;99.90;;;;;;5074949;28;20058;-65
2022/04/26 04:48:05;;;;;;;8.88;5.03;;;7.70;99.90;;;;;;5077179;28;20050;-65
2022/04/26 04:50:32;;;;;;;9.70;6.03;;;7.70;99.90;;;;;;5076858;28;20058;-65
2022/04/26 04:52:58;;;;;;;10.15;6.18;;;7.80;99.90;;;;;;5076206;28;20837;-65
2022/04/26 04:55:23;;;;;;;11.98;5.45;;;7.80;99.90;;;;;;5077046;28;20044;-65
2022/04/26 04:57:49;;;;;;;14.35;5.28;;;7.80;99.90;;;;;;5076428;28;20044;-65
2022/04/26 05:00:15;;;;;;;7.70;6.32;;;7.80;99.90;;;;;;5077213;28;20074;-65
2022/04/26 05:02:40;;;;;;;10.95;5.57;;;7.80;99.90;;;;;;5076563;28;20064;-65
2022/04/26 05:05:06;;;;;;;11.27;5.45;;;7.80;99.90;;;;;;5075911;28;20780;-65
2022/04/26 05:07:32;;;;;;;8.73;6.90;;;7.80;99.90;;;;;;5074371;28;20106;-65
2022/04/26 05:09:58;;;;;;;10.63;6.28;;;7.80;99.90;;;;;;5062705;28;20056;-65
2022/04/26 05:12:23;;;;;;;12.55;6.15;;;7.80;99.90;;;;;;5056579;28;20076;-65
2022/04/26 05:14:49;;;;;;;8.85;6.05;;;7.80;99.90;;;;;;5054952;28;20048;-65
2022/04/26 05:17:14;;;;;;;17.58;5.60;;;7.90;99.90;;;;;;5056348;28;20048;-65
2022/04/26 05:19:40;;;;;;;13.40;5.80;;;8.00;99.90;;;;;;5055794;28;20706;-65
2022/04/26 05:22:09;;;;;;;11.55;5.88;;;8.00;99.90;;;;;;5056440;28;20049;-65
2022/04/26 05:24:53;;;;;;;12.95;5.57;;;8.00;99.90;;;;;;5060955;28;20044;-65
2022/04/26 05:27:23;;;;;;;10.73;4.97;;;8.10;99.90;;;;;;5059121;28;20221;-65
2022/04/26 05:29:50;;;;;;;6.75;5.00;;;8.00;99.90;;;;;;5060710;28;20048;-65
2022/04/26 05:32:24;;;;;;;9.00;4.90;;;8.00;99.90;;;;;;5058699;28;20040;-65
2022/04/26 05:34:59;;;;;;;7.45;5.05;;;8.10;99.90;;;;;;5055952;28;20403;-65
2022/04/26 05:37:25;;;;;;;8.52;5.00;;;8.10;99.90;;;;;;5056293;28;20043;-65
2022/04/26 05:39:51;;;;;;;9.70;5.78;;;8.20;99.90;;;;;;5058476;28;20040;-65
2022/04/26 05:42:17;;;;;;;9.23;4.63;;;8.20;99.90;;;;;;5062434;28;20047;-65
2022/04/26 05:44:43;;;;;;;7.47;4.38;;;8.30;99.90;;;;;;5059039;28;20049;-65
2022/04/26 05:47:09;;;;;;;9.45;5.07;;;8.40;99.90;;;;;;5054994;28;20470;-63
2022/04/26 05:49:35;;;;;;;11.07;4.53;;;8.50;99.90;;;;;;5058344;28;20817;-63
2022/04/26 05:52:02;;;;;;;7.85;5.55;;;8.60;99.90;;;;;;5061186;28;20044;-63
2022/04/26 05:54:28;;;;;;;8.98;4.70;;;8.60;99.90;;;;;;5056790;28;20048;-63
2022/04/26 05:56:54;;;;;;;7.85;4.45;;;8.70;99.90;;;;;;5057531;28;20555;-64
2022/04/26 05:59:21;;;;;;;9.85;5.22;;;8.70;99.90;;;;;;5050695;28;20692;-64
2022/04/26 06:01:47;;;;;;;9.63;5.18;;;8.80;99.90;;;;;;5052371;28;21038;-64
2022/04/26 06:04:13;;;;;;;11.90;5.05;;;8.80;99.90;;;;;;5058787;28;20063;-62
2022/04/26 06:06:38;;;;;;;11.13;4.78;;;8.80;99.90;;;;;;5055491;28;20056;-63
2022/04/26 06:09:04;;;;;;;7.38;4.35;;;8.80;99.90;;;;;;5060668;28;20052;-63
2022/04/26 06:11:30;;;;;;;7.93;3.90;;;8.80;99.90;;;;;;5054279;28;20831;-62
2022/04/26 06:13:56;;;;;;;6.10;3.50;;;8.80;99.90;;;;;;5053098;28;20282;-63
2022/04/26 06:16:22;;;;;;;9.05;4.80;;;8.90;99.90;;;;;;5053202;28;20488;-62
2022/04/26 06:18:47;;;;;;;8.77;4.15;;;8.90;99.90;;;;;;5054761;28;20052;-63
2022/04/26 06:21:13;;;;;;;8.85;4.13;;;8.90;99.90;;;;;;5053846;28;20094;-62
2022/04/26 06:23:39;;;;;;;12.00;5.55;;;8.90;99.90;;;;;;5054419;28;20993;-62
2022/04/26 06:26:05;;;;;;;8.52;4.60;;;9.00;99.90;;;;;;5055191;28;20055;-63
2022/04/26 06:28:30;;;;;;;11.63;4.40;;;9.10;99.90;;;;;;5052521;28;20044;-63
2022/04/26 06:30:56;;;;;;;8.55;4.95;;;9.20;99.90;;;;;;5065497;28;20036;-62
2022/04/26 06:33:21;;;;;;;7.57;4.15;;;9.20;99.90;;;;;;5070466;28;20080;-63
2022/04/26 06:35:47;;;;;;;7.18;4.50;;;9.30;99.90;;;;;;5053033;28;20118;-63
2022/04/26 06:38:13;;;;;;;9.18;4.72;;;9.30;99.90;;;;;;5055423;28;20044;-62
2022/04/26 06:40:38;;;;;;;6.20;4.78;;;9.20;99.90;;;;;;5054384;28;20974;-63
2022/04/26 06:43:04;;;;;;;9.52;5.60;;;9.20;99.90;;;;;;5053933;28;20044;-63
2022/04/26 06:45:29;;;;;;;8.50;4.60;;;9.30;99.90;;;;;;5049990;28;20040;-63
2022/04/26 06:47:55;;;;;;;10.20;4.70;;;9.50;99.90;;;;;;5055340;28;20052;-62
2022/04/26 06:50:23;;;;;;;6.45;4.15;;;9.70;99.90;;;;;;5055123;28;20044;-62
2022/04/26 06:52:48;;;;;;;10.02;4.30;;;9.80;99.90;;;;;;5055255;28;20068;-63
2022/04/26 06:55:14;;;;;;;6.65;4.50;;;9.90;99.90;;;;;;5051273;28;20155;-63
2022/04/26 06:57:40;;;;;;;7.93;4.53;;;10.00;99.90;;;;;;5048479;28;20700;-63
2022/04/26 07:00:07;;;;;;;6.30;3.92;;;10.40;99.90;;;;;;5056051;28;20044;-64
2022/04/26 07:02:33;;;;;;;4.97;3.45;;;11.00;99.90;;;;;;5055939;28;20048;-64
2022/04/26 07:04:59;;;;;;;5.32;3.90;;;11.90;99.90;;;;;;5067286;28;20055;-63
2022/04/26 07:07:24;;;;;;;9.38;4.03;;;11.40;99.90;;;;;;5075339;28;20052;-63
2022/04/26 07:09:50;;;;;;;7.13;4.05;;;10.90;99.90;;;;;;5074707;28;20116;-63
2022/04/26 07:12:15;;;;;;;9.40;3.88;;;10.70;99.90;;;;;;5075426;28;20136;-63
2022/04/26 07:14:42;;;;;;;8.95;3.58;;;10.80;99.90;;;;;;5059067;28;20101;-63
2022/04/26 07:17:08;;;;;;;6.55;3.05;;;10.80;99.90;;;;;;5053315;28;20051;-63
2022/04/26 07:19:36;;;;;;;6.50;3.70;;;11.20;99.90;;;;;;5056054;28;20044;-63
2022/04/26 07:22:03;;;;;;;6.95;3.53;;;11.70;99.90;;;;;;5060617;28;20051;-63
2022/04/26 07:24:33;;;;;;;5.70;3.42;;;11.40;99.90;;;;;;5059998;28;20044;-63
2022/04/26 07:26:58;;;;;;;6.70;2.88;;;11.00;99.90;;;;;;5068227;28;20876;-63
2022/04/26 07:29:24;;;;;;;7.30;3.22;;;11.20;99.90;;;;;;5060534;28;20075;-63
2022/04/26 07:31:49;;;;;;;2.90;2.58;;;12.10;99.90;;;;;;5066024;28;20216;-63
2022/04/26 07:34:20;;;;;;;5.78;2.97;;;12.50;99.90;;;;;;5063661;28;20578;-63
2022/04/26 07:36:51;;;;;;;12.88;2.83;;;13.10;99.40;;;;;;5061114;28;20826;-64
2022/04/26 07:39:17;;;;;;;9.60;3.80;;;13.80;99.60;;;;;;5063923;28;20073;-63
2022/04/26 07:41:47;;;;;;;6.97;3.17;;;14.40;98.40;;;;;;5071145;28;20590;-63
2022/04/26 07:44:14;;;;;;;7.05;3.13;;;14.80;96.80;;;;;;5074194;28;20044;-63
2022/04/26 07:46:42;;;;;;;4.82;2.83;;;14.90;96.90;;;;;;5055610;28;20643;-63
2022/04/26 07:49:10;;;;;;;7.03;3.65;;;15.30;98.00;;;;;;5060433;28;20116;-63
2022/04/26 07:51:36;;;;;;;4.85;2.72;;;14.50;95.60;;;;;;5056679;28;20048;-63
2022/04/26 07:54:01;;;;;;;5.22;3.03;;;13.70;95.40;;;;;;5060222;28;20087;-64
2022/04/26 07:56:27;;;;;;;5.00;2.90;;;13.00;96.70;;;;;;5057812;28;20079;-64
2022/04/26 07:58:54;;;;;;;6.53;2.53;;;12.20;96.90;;;;;;5057758;28;20043;-63
2022/04/26 08:01:20;;;;;;;3.40;2.47;;;11.90;97.90;;;;;;5058935;28;21000;-63
2022/04/26 08:03:45;;;;;;;6.57;2.50;;;11.80;99.10;;;;;;5061295;28;20060;-63
2022/04/26 08:06:11;;;;;;;4.18;2.80;;;11.50;98.50;;;;;;5061078;28;20598;-62
2022/04/26 08:08:36;;;;;;;4.75;2.97;;;11.90;98.60;;;;;;5060194;28;20129;-62
2022/04/26 08:11:03;;;;;;;5.38;2.40;;;11.20;98.90;;;;;;5058258;28;20810;-62
2022/04/26 08:13:29;;;;;;;5.57;2.30;;;11.10;99.20;;;;;;5058104;28;20056;-63
2022/04/26 08:15:54;;;;;;;3.42;2.03;;;11.50;98.90;;;;;;5055203;28;20072;-62
2022/04/26 08:18:20;;;;;;;8.15;2.60;;;12.00;98.30;;;;;;5065708;28;20121;-63
2022/04/26 08:20:46;;;;;;;6.53;2.58;;;12.30;98.40;;;;;;5054947;28;20045;-63
2022/04/26 08:23:12;;;;;;;3.05;2.35;;;12.50;96.90;;;;;;5062805;28;20121;-64
2022/04/26 08:28:23;;;;;;;6.35;2.80;;;12.90;96.50;;;;;;5062509;28;20084;-64
2022/04/26 08:30:49;;;;;;;4.38;2.72;;;12.20;95.80;;;;;;5054816;28;20044;-64
2022/04/26 08:33:14;;;;;;;6.72;2.78;;;12.40;95.70;;;;;;5059221;28;20051;-65
2022/04/26 08:35:40;;;;;;;7.90;3.17;;;13.00;96.30;;;;;;5060163;28;20036;-63
2022/04/26 08:38:05;;;;;;;10.50;3.47;;;13.50;94.90;;;;;;5058719;28;20229;-65
2022/04/26 08:40:31;;;;;;;9.32;4.45;;;13.30;93.80;;;;;;5058507;28;20040;-64
2022/04/26 08:42:59;;;;;;;4.05;2.55;;;13.80;95.50;;;;;;5062223;28;20043;-65
2022/04/26 08:45:24;;;;;;;5.18;3.00;;;14.00;94.10;;;;;;5058040;28;20091;-64
2022/04/26 08:53:21;;;;;;;6.25;3.15;;;15.10;93.20;;;;;;5059454;28;20057;-64
2022/04/26 08:55:53;;;;;;;6.85;3.20;;;15.00;91.60;;;;;;5052061;28;20132;-63
2022/04/26 08:58:19;;;;;;;4.75;2.53;;;13.50;92.30;;;;;;5055716;28;20098;-64
2022/04/26 09:01:04;;;;;;;7.03;2.97;;;13.80;93.30;;;;;;5060843;28;20044;-65
2022/04/26 09:03:34;;;;;;;7.22;3.10;;;13.80;92.20;;;;;;5054476;28;20110;-64
2022/04/26 09:06:08;;;;;;;5.68;2.70;;;13.70;93.60;;;;;;5068831;28;20055;-64
2022/04/26 09:08:37;;;;;;;4.80;2.72;;;14.20;92.00;;;;;;5060339;28;20797;-64
2022/04/26 09:11:03;;;;;;;7.40;3.72;;;14.40;92.80;;;;;;5060865;28;20718;-65
2022/04/26 09:13:40;;;;;;;5.68;2.83;;;14.70;93.10;;;;;;5055748;28;20048;-64
2022/04/26 09:16:15;;;;;;;5.75;2.92;;;15.00;90.00;;;;;;5056853;28;20044;-65
2022/04/26 09:18:50;;;;;;;5.18;3.05;;;15.00;90.40;;;;;;5054266;28;20821;-65
2022/04/26 09:21:16;;;;;;;5.53;3.25;;;15.60;90.40;;;;;;5067244;28;20048;-65
2022/04/26 09:23:42;;;;;;;4.78;2.78;;;16.00;91.70;;;;;;5060572;28;20832;-64
2022/04/26 09:26:15;;;;;;;5.88;2.65;;;16.20;85.60;;;;;;5061708;28;20062;-64
2022/04/26 09:28:51;;;;;;;4.97;2.40;;;15.90;88.50;;;;;;5071478;28;20463;-64
2022/04/26 09:31:22;;;;;;;3.08;2.60;;;16.10;88.30;;;;;;5067648;28;20108;-64
2022/04/26 09:33:52;;;;;;;4.63;3.00;;;16.40;90.80;;;;;;5073307;28;20056;-64
2022/04/26 09:36:24;;;;;;;6.35;3.08;;;16.30;90.80;;;;;;5072278;28;20125;-65
2022/04/26 09:39:00;;;;;;;6.93;2.95;;;15.40;90.10;;;;;;5066172;28;20056;-65
2022/04/26 09:41:28;;;;;;;5.40;2.75;;;15.60;87.10;;;;;;5057344;28;20486;-64
2022/04/26 09:44:06;;;;;;;5.75;2.70;;;15.40;90.70;;;;;;5057124;28;20125;-65
2022/04/26 09:46:52;;;;;;;2.50;2.20;;;14.40;86.60;;;;;;5051392;28;20048;-65
2022/04/26 09:49:21;;;;;;;3.53;3.00;;;15.00;87.90;;;;;;5053191;28;20044;-65
2022/04/26 09:52:00;;;;;;;6.65;2.72;;;15.60;90.00;;;;;;5052695;28;20052;-64
2022/04/26 09:54:26;;;;;;;5.47;2.58;;;15.40;87.60;;;;;;5053559;28;20818;-64
2022/04/26 09:56:53;;;;;;;4.25;2.30;;;15.20;90.10;;;;;;5053116;28;20396;-64
2022/04/26 09:59:29;;;;;;;3.58;2.17;;;15.10;89.40;;;;;;5052759;28;20057;-64
2022/04/26 10:01:59;;;;;;;6.15;2.67;;;14.50;88.00;;;;;;5067568;28;20074;-64
2022/04/26 10:04:27;;;;;;;6.43;2.85;;;14.30;89.30;;;;;;5073176;28;20052;-64
2022/04/26 10:06:59;;;;;;;6.88;3.00;;;15.00;89.60;;;;;;5073269;28;20062;-64
2022/04/26 10:09:26;;;;;;;2.38;2.17;;;15.50;86.90;;;;;;5072334;28;20571;-64
2022/04/26 10:12:00;;;;;;;3.13;2.72;;;15.80;87.50;;;;;;5073459;28;20044;-64
2022/04/26 10:14:28;;;;;;;4.18;2.90;;;15.20;83.40;;;;;;5071571;28;20055;-64
2022/04/26 10:16:55;;;;;;;4.95;3.10;;;15.50;84.70;;;;;;5073170;28;20044;-64
2022/04/26 10:19:36;;;;;;;7.68;3.70;;;15.40;86.80;;;;;;5073236;28;20043;-64
2022/04/26 10:22:02;;;;;;;3.08;2.63;;;15.20;85.40;;;;;;5057655;28;20730;-64
2022/04/26 10:24:28;;;;;;;5.72;2.40;;;15.20;87.20;;;;;;5052785;28;20044;-64
2022/04/26 10:27:13;;;;;;;4.53;2.80;;;15.50;85.90;;;;;;5065406;28;20261;-64
2022/04/26 10:29:44;;;;;;;4.18;3.15;;;15.60;86.20;;;;;;5072647;28;20090;-64
2022/04/26 10:32:11;;;;;;;4.55;2.90;;;15.40;85.00;;;;;;5071875;28;20048;-65
2022/04/26 10:34:39;;;;;;;3.97;2.33;;;16.00;88.00;;;;;;5072488;28;20058;-64
2022/04/26 10:37:07;;;;;;;7.25;3.22;;;16.00;83.10;;;;;;5073061;28;20044;-64
2022/04/26 10:39:41;;;;;;;3.90;2.33;;;15.50;83.80;;;;;;5072806;28;20044;-64
2022/04/26 10:42:16;;;;;;;5.80;2.42;;;16.30;84.50;;;;;;5072199;28;20491;-64
2022/04/26 10:44:46;;;;;;;4.32;2.72;;;17.00;82.70;;;;;;5073025;28;20103;-64
2022/04/26 10:47:12;;;;;;;8.20;3.28;;;17.00;80.30;;;;;;5070984;28;20419;-65
2022/04/26 10:49:42;;;;;;;5.03;2.70;;;16.50;84.00;;;;;;5071825;28;20067;-64
2022/04/26 10:52:25;;;;;;;3.92;2.50;;;15.80;81.40;;;;;;5072326;28;20128;-65
2022/04/26 10:57:19;;;;;;;4.18;2.35;;;15.20;83.00;;;;;;5070297;28;20086;-65
2022/04/26 10:59:46;;;;;;;5.28;3.05;;;14.60;84.70;;;;;;5070470;28;20051;-64
2022/04/26 11:02:14;;;;;;;4.75;2.38;;;14.20;83.30;;;;;;5071694;28;20040;-64
2022/04/26 11:04:39;;;;;;;5.10;2.67;;;14.10;84.80;;;;;;5072040;28;20563;-64
2022/04/26 11:07:17;;;;;;;4.28;3.22;;;14.20;86.10;;;;;;5072402;28;20036;-64
2022/04/26 11:09:50;;;;;;;4.57;3.20;;;14.20;86.50;;;;;;5070358;28;20044;-64
2022/04/26 11:12:23;;;;;;;;;;;14.10;86.50;;;;;;5073127;28;20032;-64
2022/04/26 11:14:51;;;;;;;5.85;3.28;;;14.30;85.60;;;;;;5072385;28;19931;-65
2022/04/26 11:17:18;;;;;;;10.80;2.80;;;14.00;84.20;;;;;;5073908;28;20048;-64
2022/04/26 11:19:51;;;;;;;4.40;2.17;;;14.20;85.30;;;;;;5074322;28;20068;-64
2022/04/26 11:22:18;;;;;;;4.53;2.50;;;13.80;84.10;;;;;;5073171;28;20052;-65
2022/04/26 11:30:26;;;;;;;4.78;2.63;;;14.20;83.80;;;;;;5073578;28;20055;-65
2022/04/26 11:32:54;;;;;;;3.10;2.08;;;14.10;84.10;;;;;;5074298;28;20199;-65
2022/04/26 11:35:20;;;;;;;3.40;2.60;;;14.10;84.40;;;;;;5072295;28;20048;-65
2022/04/26 11:37:47;;;;;;;2.50;2.30;;;14.00;83.90;;;;;;5073003;28;20129;-64
2022/04/26 11:40:28;;;;;;;5.88;2.55;;;14.00;82.40;;;;;;5074409;28;20052;-64
2022/04/26 11:42:58;;;;;;;4.88;2.72;;;14.00;81.50;;;;;;5075032;28;20076;-64
2022/04/26 11:45:29;;;;;;;4.93;2.40;;;14.20;80.70;;;;;;5076742;28;20040;-65
2022/04/26 11:47:56;;;;;;;3.47;2.65;;;14.40;82.10;;;;;;5077708;28;20040;-65
2022/04/26 11:50:21;;;;;;;4.00;3.13;;;14.40;82.60;;;;;;5077115;28;20060;-65
2022/04/26 11:52:49;;;;;;;5.63;3.00;;;14.40;83.20;;;;;;5072277;28;20467;-64
2022/04/26 11:55:29;;;;;;;6.82;3.35;;;14.20;82.70;;;;;;5059570;28;20047;-65
2022/04/26 11:58:09;;;;;;;5.47;2.83;;;14.40;83.90;;;;;;5058828;28;20051;-65
2022/04/26 12:00:36;;;;;;;4.88;3.05;;;14.30;83.40;;;;;;5058767;28;20147;-64
2022/04/26 12:03:03;;;;;;;3.28;2.47;;;14.00;83.00;;;;;;5059037;28;20060;-64
2022/04/26 12:05:33;;;;;;;5.80;2.65;;;13.70;83.30;;;;;;5062428;28;20985;-65
2022/04/26 12:07:58;;;;;;;6.80;3.35;;;14.20;84.30;;;;;;5064759;28;20050;-64
2022/04/26 12:10:32;;;;;;;4.35;2.80;;;14.60;82.60;;;;;;5059196;28;20048;-64
2022/04/26 12:13:02;;;;;;;3.88;3.25;;;14.40;81.50;;;;;;5061292;28;20592;-65
2022/04/26 12:15:30;;;;;;;6.03;3.15;;;14.20;83.50;;;;;;5063326;28;20176;-65
2022/04/26 12:18:07;;;;;;;3.30;2.75;;;14.20;81.50;;;;;;5064333;28;20044;-65
2022/04/26 12:20:35;;;;;;;2.78;2.42;;;14.50;82.50;;;;;;5058716;28;20109;-64
2022/04/26 12:23:01;;;;;;;4.63;2.88;;;14.40;82.00;;;;;;5067974;28;20040;-65
2022/04/26 12:25:27;;;;;;;3.63;3.25;;;14.20;81.70;;;;;;5062498;28;20894;-65
2022/04/26 12:28:08;;;;;;;3.17;2.40;;;14.50;82.20;;;;;;5059680;28;20603;-65
2022/04/26 12:30:38;;;;;;;7.05;3.58;;;14.80;78.90;;;;;;5060215;28;20055;-65
2022/04/26 12:33:05;;;;;;;2.95;2.63;;;14.70;78.00;;;;;;5062522;28;20785;-64
2022/04/26 12:35:31;;;;;;;4.53;2.95;;;14.60;78.80;;;;;;5061846;28;20482;-65
2022/04/26 12:38:05;;;;;;;3.17;2.50;;;14.60;79.80;;;;;;5062367;28;20048;-64
2022/04/26 12:40:31;;;;;;;4.85;2.78;;;14.40;79.90;;;;;;5058365;28;20044;-64
2022/04/26 12:42:57;;;;;;;6.18;3.00;;;14.20;80.30;;;;;;5065267;28;20052;-64
2022/04/26 12:45:24;;;;;;;4.30;2.60;;;14.00;81.20;;;;;;5055870;28;20864;-64
2022/04/26 12:51:24;;;;;;;3.97;2.63;;;14.30;81.30;;;;;;5057264;28;20151;-65
2022/04/26 12:53:52;;;;;;;4.75;2.50;;;14.30;79.60;;;;;;5057124;28;20050;-64
2022/04/26 12:56:19;;;;;;;4.35;2.65;;;13.90;79.90;;;;;;5055567;28;20985;-65
2022/04/26 12:58:47;;;;;;;5.85;2.72;;;13.80;80.90;;;;;;5056050;28;20052;-64
2022/04/26 13:01:14;;;;;;;4.65;2.78;;;13.80;81.50;;;;;;5056093;28;20037;-64
2022/04/26 13:03:42;;;;;;;3.35;2.38;;;13.40;81.00;;;;;;5056327;28;20067;-65
2022/04/26 13:06:10;;;;;;;3.28;2.95;;;13.40;82.50;;;;;;5075629;28;20048;-64
2022/04/26 13:08:37;;;;;;;4.43;2.55;;;13.40;83.10;;;;;;5076543;28;20052;-64
2022/04/26 13:11:04;;;;;;;4.90;2.30;;;13.40;82.00;;;;;;5076297;28;20040;-65
2022/04/26 13:13:30;;;;;;;4.63;2.95;;;13.40;83.90;;;;;;5074910;28;20051;-64
2022/04/26 13:15:56;;;;;;;2.50;2.25;;;13.50;82.50;;;;;;5075621;28;20043;-65
2022/04/26 13:18:22;;;;;;;4.68;3.00;;;13.70;82.80;;;;;;5075814;28;20054;-65
2022/04/26 13:20:48;;;;;;;5.47;2.70;;;13.60;83.20;;;;;;5076878;28;20507;-64
2022/04/26 13:23:16;;;;;;;4.95;3.05;;;13.60;82.80;;;;;;5075693;28;20079;-65
2022/04/26 13:25:42;;;;;;;5.18;2.33;;;14.00;83.40;;;;;;5075903;28;20971;-65
2022/04/26 13:28:08;;;;;;;4.18;2.58;;;14.40;83.20;;;;;;5076266;28;20150;-65
2022/04/26 13:30:34;;;;;;;3.75;2.30;;;14.40;83.30;;;;;;5076328;28;20044;-65
2022/04/26 13:33:00;;;;;;;3.95;3.13;;;14.40;82.30;;;;;;5076132;28;20119;-63
2022/04/26 13:35:26;;;;;;;3.50;2.70;;;14.30;83.10;;;;;;5074236;28;20055;-65
2022/04/26 13:37:52;;;;;;;4.93;2.45;;;14.00;82.30;;;;;;5074314;28;20052;-65
2022/04/26 13:40:19;;;;;;;2.50;2.30;;;14.00;83.80;;;;;;5076056;28;20040;-65
2022/04/26 13:42:45;;;;;;;4.80;2.40;;;13.70;81.80;;;;;;5075699;28;20056;-64
2022/04/26 13:45:11;;;;;;;3.10;2.40;;;13.60;83.70;;;;;;5075395;28;20133;-65
2022/04/26 13:47:38;;;;;;;4.25;2.53;;;13.80;84.40;;;;;;5075884;28;20040;-65
2022/04/26 13:50:08;;;;;;;4.78;3.03;;;14.30;84.50;;;;;;5074170;28;20062;-66
2022/04/26 13:52:34;;;;;;;3.72;2.50;;;14.60;83.00;;;;;;5075025;28;20040;-65
2022/04/26 13:55:00;;;;;;;5.10;3.75;;;14.40;83.10;;;;;;5076010;28;20056;-65
2022/04/26 13:57:26;;;;;;;5.57;2.53;;;14.10;83.10;;;;;;5075281;28;20044;-65
2022/04/26 13:59:52;;;;;;;3.42;2.47;;;13.90;84.10;;;;;;5073383;28;20052;-65
2022/04/26 14:02:21;;;;;;;4.32;2.60;;;13.90;85.40;;;;;;5075679;28;20059;-65
2022/04/26 14:04:48;;;;;;;3.90;3.25;;;13.60;85.00;;;;;;5075544;28;20059;-64
2022/04/26 14:07:14;;;;;;;2.92;2.33;;;13.60;84.10;;;;;;5073264;28;20127;-65
2022/04/26 14:09:40;;;;;;;3.60;3.13;;;13.70;83.60;;;;;;5075061;28;20047;-65
2022/04/26 14:12:07;;;;;;;2.90;2.15;;;13.50;84.30;;;;;;5075039;28;20105;-65
2022/04/26 14:22:47;;;;;;;3.60;2.90;;;13.30;86.20;;;;;;5074081;28;20044;-64
2022/04/26 14:25:13;;;;;;;8.73;2.97;;;13.60;87.30;;;;;;5074048;28;20052;-65
2022/04/26 14:27:41;;;;;;;5.55;3.33;;;13.50;85.20;;;;;;5074325;28;20151;-64
2022/04/26 14:30:09;;;;;;;4.57;3.03;;;13.60;85.30;;;;;;5074937;28;20112;-65
2022/04/26 14:32:35;;;;;;;3.65;3.13;;;13.60;85.50;;;;;;5074295;28;20072;-65
2022/04/26 14:35:02;;;;;;;4.68;2.90;;;13.70;85.30;;;;;;5074454;28;20538;-65
2022/04/26 14:37:27;;;;;;;3.00;2.75;;;13.80;85.60;;;;;;5075464;28;20055;-65
2022/04/26 14:39:53;;;;;;;4.90;3.22;;;14.00;85.40;;;;;;5075037;28;20048;-65
2022/04/26 14:42:19;;;;;;;7.50;3.53;;;13.90;85.70;;;;;;5074418;28;20040;-65
2022/04/26 14:44:45;;;;;;;3.25;2.78;;;13.90;86.90;;;;;;5075480;28;20574;-65
2022/04/26 14:47:12;;;;;;;5.88;3.25;;;13.80;87.00;;;;;;5074436;28;20039;-65
2022/04/26 14:49:38;;;;;;;3.58;3.28;;;13.60;87.40;;;;;;5074614;28;20138;-65
2022/04/26 14:52:04;;;;;;;3.97;3.20;;;13.20;86.40;;;;;;5074757;28;20050;-65
2022/04/26 14:54:29;;;;;;;2.92;2.25;;;12.90;88.50;;;;;;5074140;28;20043;-65
2022/04/26 14:56:55;;;;;;;4.57;3.45;;;12.80;89.70;;;;;;5074340;28;20468;-64
2022/04/26 14:59:22;;;;;;;5.45;3.25;;;12.60;90.10;;;;;;5074563;28;20085;-65
2022/04/26 15:01:49;;;;;;;2.97;2.67;;;12.60;90.20;;;;;;5074634;28;20055;-65
2022/04/26 15:04:25;;;;;;;4.70;3.38;;;12.50;90.50;;;;;;5074444;28;20490;-65
2022/04/26 15:06:51;;;;;;;3.83;2.63;;;12.30;90.00;;;;;;5074335;28;20635;-65
2022/04/26 15:17:32;;;;;;;6.53;3.35;;;12.30;90.00;;;;;;5073485;28;20063;-64
2022/04/26 15:19:57;;;;;;;5.60;2.60;;;12.30;89.30;;;;;;5076111;28;20044;-64
2022/04/26 15:22:24;;;;;;;3.85;3.45;;;12.50;89.60;;;;;;5077717;28;20044;-65
2022/04/26 15:24:51;;;;;;;3.25;2.38;;;12.70;89.00;;;;;;5077818;28;20048;-65
2022/04/26 15:27:18;;;;;;;4.47;2.42;;;12.90;87.00;;;;;;5078158;28;20126;-65
2022/04/26 15:29:44;;;;;;;4.45;2.72;;;13.00;88.80;;;;;;5077893;28;20040;-65
2022/04/26 15:32:09;;;;;;;6.20;3.00;;;13.10;87.20;;;;;;5078626;28;20051;-65
2022/04/26 15:34:35;;;;;;;7.25;3.08;;;13.00;86.90;;;;;;5077846;28;20042;-65
2022/04/26 15:37:01;;;;;;;4.88;2.97;;;13.10;87.80;;;;;;5077481;28;20088;-65
2022/04/26 15:39:28;;;;;;;4.35;2.60;;;13.20;84.50;;;;;;5076187;28;20056;-65
2022/04/26 15:41:54;;;;;;;3.88;2.30;;;13.30;85.30;;;;;;5078177;28;20124;-65
2022/04/26 15:44:20;;;;;;;3.80;2.80;;;13.20;86.30;;;;;;5077621;28;20052;-65
2022/04/26 15:46:47;;;;;;;5.30;2.65;;;13.40;87.10;;;;;;5077920;28;20086;-65
2022/04/26 15:49:12;;;;;;;3.40;2.65;;;13.50;85.50;;;;;;5077895;28;20052;-65
2022/04/26 15:51:41;;;;;;;3.33;2.63;;;13.60;84.60;;;;;;5076049;28;20051;-65
2022/04/26 15:54:07;;;;;;;2.70;2.50;;;13.80;84.70;;;;;;5078017;28;20201;-65
2022/04/26 15:56:32;;;;;;;3.10;2.30;;;14.00;86.30;;;;;;5077762;28;20476;-65
2022/04/26 15:59:00;;;;;;;4.55;3.05;;;14.20;85.70;;;;;;5076450;28;20051;-65
2022/04/26 16:01:26;;;;;;;3.95;2.83;;;14.10;81.90;;;;;;5078168;28;20109;-65
2022/04/26 16:03:52;;;;;;;4.32;2.70;;;14.30;84.70;;;;;;5077710;28;20063;-66
2022/04/26 16:06:18;;;;;;;4.88;2.88;;;14.40;84.10;;;;;;5077358;28;20043;-65
2022/04/26 16:08:44;;;;;;;5.20;2.80;;;14.20;82.00;;;;;;5075660;28;20096;-65
2022/04/26 16:22:07;;;;;;;4.07;2.60;;;13.60;86.10;;;;;;5058921;28;20110;-65
2022/04/26 16:24:38;;;;;;;6.25;2.67;;;13.50;84.80;;;;;;5062602;28;20040;-65
2022/04/26 16:27:05;;;;;;;5.03;2.80;;;13.50;84.40;;;;;;5052536;28;20959;-65
2022/04/26 16:29:30;;;;;;;2.92;2.38;;;13.60;84.10;;;;;;5053883;28;20048;-64
2022/04/26 16:31:56;;;;;;;8.20;2.65;;;13.20;82.10;;;;;;5052103;28;20040;-64
2022/04/26 16:34:22;;;;;;;3.30;2.50;;;13.20;83.60;;;;;;5052730;28;20056;-65
2022/04/26 16:36:47;;;;;;;4.35;2.65;;;13.30;84.70;;;;;;5053560;28;20047;-65
2022/04/26 16:39:13;;;;;;;7.20;2.67;;;13.30;85.60;;;;;;5056244;28;20099;-63
2022/04/26 16:41:38;;;;;;;3.42;2.50;;;13.10;85.30;;;;;;5060211;28;20047;-62
2022/04/26 16:44:04;;;;;;;5.63;3.33;;;13.10;85.90;;;;;;5055598;28;20058;-62
2022/04/26 16:46:30;;;;;;;2.53;2.30;;;12.90;85.20;;;;;;5052382;28;20075;-62
2022/04/26 16:48:56;;;;;;;6.18;2.85;;;12.80;85.30;;;;;;5057157;28;20075;-62
2022/04/26 16:51:22;;;;;;;4.97;2.53;;;12.60;84.50;;;;;;5055099;28;20147;-63
2022/04/26 16:53:48;;;;;;;4.43;3.10;;;12.50;85.60;;;;;;5054387;28;20056;-63
2022/04/26 16:56:14;;;;;;;5.40;3.05;;;12.30;85.20;;;;;;5056195;28;20036;-63
2022/04/26 16:58:40;;;;;;;6.40;2.25;;;12.40;85.90;;;;;;5049941;28;20574;-63
2022/04/26 17:01:05;;;;;;;3.63;2.72;;;12.10;86.80;;;;;;5051971;28;20385;-62
2022/04/26 17:03:31;;;;;;;4.65;3.00;;;12.20;88.00;;;;;;5053983;28;20568;-63
2022/04/26 17:05:57;;;;;;;3.92;2.65;;;12.00;87.50;;;;;;5053133;28;20737;-63
2022/04/26 17:08:22;;;;;;;5.65;3.03;;;12.10;88.00;;;;;;5047989;28;20047;-63
2022/04/26 17:10:48;;;;;;;3.00;2.65;;;12.10;88.60;;;;;;5053017;28;20549;-63
2022/04/26 17:13:15;;;;;;;2.92;2.72;;;11.90;87.90;;;;;;5051006;28;20051;-63
2022/04/26 17:15:41;;;;;;;3.47;2.88;;;12.00;88.20;;;;;;5049869;28;20088;-63